Townville, South Carolina
Current Conditions -  °F | °C
As of 1:11 PM on Sunday 21 Dec 2014 (Local Time) from KCEU Reporting Station
Overcast Overcast  
Wind Chill: 50°   Ceiling: 3200
Heat Index: 50°   Visibility: 10mi
Dew Point: 39°   Wind: 3mph
Humidity: 66%   Direction: NA
Pressure: 30.19"   Gusts: NA
Location:  34.56°N, 82.9°W
Report Text: KCEU 211811Z AUTO VRB03KT 10SM SCT017 OVC032 10/04 A3019 RMK AO2 T01000039
Loading
Personal Weather Stations






























Interactive Weather Map New forecast layout! Learn more

10-Day Weather Forecast

Advertisements
Track Severe Weather on mobile